Terminal Aerodrome Forecast
Issued by NWS Boston, MA

Home | Current Version | Previous Version | Text Only | Print | Product List | Glossary On
Versions: 1 2 3 4 5 6 7 8 9 10 11 12 13 14 15 16 17 18 19 20 21 22 23 24 25 26 27 28 29 30 31 32 33 34 35 36 37 38 39 40 41 42 43
000
FTUS41 KBOX 292331 AAA
TAFPVD
TAF AMD
KPVD 292331Z 3000/3024 13009KT P6SM FEW009 FEW045 BKN250
      TEMPO 3000/3002 BKN003
     FM300200 16005KT 3SM BR OVC003
     FM300600 17005KT 2SM -SHRA BR OVC003
     FM301100 20005KT 2SM -SHRA BR OVC003
     FM302200 21008KT 3SM BR VCSH OVC030=

USA.gov is the U.S. government's official web portal to all federal, state and local government web resources and services.